Time;durP1;ratioP1;P1;durP2;ratioP2;P2;SDS_P1;SDS_P2;PMS_P1;PMS_P2;Temp;Humidity;BMP_temperature;BMP_pressure;BME280_temperature;BME280_humidity;BME280_pressure;Samples;Min_cycle;Max_cycle;Signal;HPM_P1;HPM_P2
2023/05/17 00:01:22;;;;;;;1.00;0.93;;;;;;;;;;13001828;19;20014;-65
2023/05/17 00:05:40;;;;;;;1.00;0.90;;;;;;;;;;13000625;19;20014;-64
2023/05/17 00:09:58;;;;;;;1.17;0.90;;;;;;;;;;13001819;19;20017;-64
2023/05/17 00:14:16;;;;;;;0.80;0.80;;;;;;;;;;13000870;19;20011;-65
2023/05/17 00:18:33;;;;;;;1.42;0.82;;;;;;;;;;13001321;19;20003;-65
2023/05/17 00:22:51;;;;;;;1.00;0.77;;;;;;;;;;13001504;19;20011;-65
2023/05/17 00:27:09;;;;;;;0.88;0.85;;;;;;;;;;13000697;19;20034;-65
2023/05/17 00:31:27;;;;;;;1.08;0.80;;;;;;;;;;13000798;19;20011;-64
2023/05/17 00:35:44;;;;;;;1.33;0.68;;;;;;;;;;13003234;19;20007;-64
2023/05/17 00:40:04;;;;;;;0.60;0.60;;;;;;;;;;13012821;19;20018;-65
2023/05/17 00:44:22;;;;;;;0.88;0.60;;;;;;;;;;13010842;19;20027;-65
2023/05/17 00:48:39;;;;;;;1.00;0.75;;;;;;;;;;13012024;19;20465;-65
2023/05/17 00:52:58;;;;;;;1.65;0.95;;;;;;;;;;13012186;19;20013;-64
2023/05/17 00:57:15;;;;;;;5.45;0.73;;;;;;;;;;13011483;19;20028;-65
2023/05/17 01:01:35;;;;;;;0.90;0.80;;;;;;;;;;13012134;19;20354;-64
2023/05/17 01:05:52;;;;;;;2.40;0.90;;;;;;;;;;13010841;19;20338;-64
2023/05/17 01:10:10;;;;;;;0.63;0.63;;;;;;;;;;13010792;19;20340;-64
2023/05/17 01:14:50;;;;;;;1.02;0.80;;;;;;;;;;13009853;19;20013;-64
2023/05/17 01:19:38;;;;;;;0.50;0.50;;;;;;;;;;13010209;19;20353;-65
2023/05/17 01:24:38;;;;;;;2.10;0.77;;;;;;;;;;13009479;19;20346;-64
2023/05/17 01:28:59;;;;;;;5.25;0.80;;;;;;;;;;13008365;19;20014;-64
2023/05/17 01:33:19;;;;;;;0.93;0.90;;;;;;;;;;13008305;19;20377;-64
2023/05/17 01:37:38;;;;;;;1.00;0.75;;;;;;;;;;13008705;19;20046;-64
2023/05/17 01:42:06;;;;;;;0.70;0.70;;;;;;;;;;13009558;19;20457;-64
2023/05/17 01:46:34;;;;;;;0.65;0.63;;;;;;;;;;13006263;19;20015;-64
2023/05/17 01:50:55;;;;;;;1.15;0.82;;;;;;;;;;13006683;19;20366;-64
2023/05/17 01:55:24;;;;;;;0.65;0.63;;;;;;;;;;13006875;19;20010;-64
2023/05/17 01:59:43;;;;;;;0.73;0.63;;;;;;;;;;13009065;19;20026;-64
2023/05/17 02:04:01;;;;;;;0.90;0.90;;;;;;;;;;13005823;19;20048;-65
2023/05/17 02:08:19;;;;;;;1.10;0.88;;;;;;;;;;13007750;19;20026;-64
2023/05/17 02:12:36;;;;;;;1.52;1.00;;;;;;;;;;13007354;19;20010;-64
2023/05/17 02:16:54;;;;;;;0.70;0.70;;;;;;;;;;13007383;19;20011;-64
2023/05/17 02:21:12;;;;;;;1.13;0.90;;;;;;;;;;13006620;19;20010;-65
2023/05/17 02:25:30;;;;;;;1.02;0.77;;;;;;;;;;13006391;19;19994;-64
2023/05/17 02:29:48;;;;;;;;;;;;;;;;;;13007345;19;20011;-64
2023/05/17 02:34:05;;;;;;;1.07;0.80;;;;;;;;;;13006108;19;19911;-65
2023/05/17 02:38:23;;;;;;;0.77;0.77;;;;;;;;;;13006312;19;20014;-64
2023/05/17 02:42:41;;;;;;;1.65;0.90;;;;;;;;;;13006121;19;20031;-64
2023/05/17 02:46:59;;;;;;;1.02;0.80;;;;;;;;;;13005447;19;19999;-64
2023/05/17 02:51:16;;;;;;;1.30;1.00;;;;;;;;;;13006121;19;20017;-64
2023/05/17 02:55:34;;;;;;;1.08;0.98;;;;;;;;;;13006349;19;20007;-64
2023/05/17 02:59:52;;;;;;;0.80;0.80;;;;;;;;;;13004861;19;20363;-64
2023/05/17 03:04:09;;;;;;;0.77;0.70;;;;;;;;;;13004807;19;20465;-65
2023/05/17 03:08:27;;;;;;;1.40;1.10;;;;;;;;;;13004569;19;20018;-64
2023/05/17 03:12:45;;;;;;;1.98;1.05;;;;;;;;;;13004944;19;20101;-64
2023/05/17 03:17:03;;;;;;;1.02;0.93;;;;;;;;;;13003213;19;20002;-64
2023/05/17 03:21:20;;;;;;;1.15;0.88;;;;;;;;;;13004165;19;20011;-64
2023/05/17 03:25:38;;;;;;;1.13;0.95;;;;;;;;;;13003845;19;20350;-64
2023/05/17 03:29:57;;;;;;;1.02;0.70;;;;;;;;;;13004411;19;20010;-64
2023/05/17 03:34:15;;;;;;;1.10;0.88;;;;;;;;;;13002860;19;20010;-65
2023/05/17 03:38:32;;;;;;;1.60;0.90;;;;;;;;;;13002838;19;20014;-64
2023/05/17 03:42:50;;;;;;;1.10;0.88;;;;;;;;;;13002675;19;20006;-65
2023/05/17 03:47:08;;;;;;;1.58;0.95;;;;;;;;;;13000942;19;20003;-65
2023/05/17 03:51:26;;;;;;;0.73;0.73;;;;;;;;;;13002432;19;20014;-64
2023/05/17 03:55:43;;;;;;;1.02;0.68;;;;;;;;;;13002493;19;20021;-65
2023/05/17 04:00:10;;;;;;;0.70;0.70;;;;;;;;;;13001748;19;20006;-64
2023/05/17 04:04:28;;;;;;;0.55;0.50;;;;;;;;;;13001166;19;20034;-64
2023/05/17 04:08:46;;;;;;;0.90;0.60;;;;;;;;;;13001395;19;20010;-65
2023/05/17 04:13:03;;;;;;;1.35;0.35;;;;;;;;;;13021479;19;20007;-65
2023/05/17 04:17:21;;;;;;;0.40;0.28;;;;;;;;;;13025839;19;20006;-65
2023/05/17 04:21:39;;;;;;;0.47;0.32;;;;;;;;;;13026190;19;20013;-64
2023/05/17 04:25:57;;;;;;;0.30;0.30;;;;;;;;;;13024600;19;20018;-64
2023/05/17 04:30:15;;;;;;;2.17;0.47;;;;;;;;;;13024425;19;20006;-65
2023/05/17 04:34:33;;;;;;;0.63;0.50;;;;;;;;;;13025521;19;20017;-64
2023/05/17 04:38:51;;;;;;;1.10;0.60;;;;;;;;;;13025041;19;20019;-64
2023/05/17 04:43:09;;;;;;;0.88;0.55;;;;;;;;;;13024112;19;20022;-64
2023/05/17 04:47:26;;;;;;;1.42;0.90;;;;;;;;;;13022689;19;20070;-64
2023/05/17 04:51:45;;;;;;;0.52;0.52;;;;;;;;;;13025308;19;20330;-64
2023/05/17 04:56:03;;;;;;;0.93;0.90;;;;;;;;;;13023692;19;20014;-65
2023/05/17 05:00:22;;;;;;;0.57;0.50;;;;;;;;;;13024461;19;20010;-65
2023/05/17 05:04:40;;;;;;;1.23;0.70;;;;;;;;;;13023688;19;20015;-64
2023/05/17 05:09:00;;;;;;;0.63;0.63;;;;;;;;;;13023735;19;20509;-64
2023/05/17 05:13:18;;;;;;;1.10;0.80;;;;;;;;;;13023501;19;20002;-64
2023/05/17 05:17:36;;;;;;;1.50;0.80;;;;;;;;;;13023641;19;20461;-65
2023/05/17 05:21:54;;;;;;;;;;;;;;;;;;13020370;19;20343;-64
2023/05/17 05:26:11;;;;;;;3.07;1.27;;;;;;;;;;13008658;19;19915;-65
2023/05/17 05:30:29;;;;;;;0.75;0.50;;;;;;;;;;13010967;19;20045;-64
2023/05/17 05:34:47;;;;;;;1.48;0.75;;;;;;;;;;13010551;19;20011;-64
2023/05/17 05:39:04;;;;;;;0.52;0.50;;;;;;;;;;13011162;19;20011;-64
2023/05/17 05:43:25;;;;;;;0.50;0.50;;;;;;;;;;13010038;19;20017;-64
2023/05/17 05:47:42;;;;;;;3.13;1.00;;;;;;;;;;13009424;19;20042;-65
2023/05/17 05:52:00;;;;;;;0.70;0.70;;;;;;;;;;13008609;19;20465;-64
2023/05/17 05:56:18;;;;;;;4.32;1.65;;;;;;;;;;13008697;19;20035;-65
2023/05/17 06:00:36;;;;;;;2.00;1.00;;;;;;;;;;13008341;19;20018;-65
2023/05/17 06:04:53;;;;;;;1.83;0.85;;;;;;;;;;13007817;19;19998;-64
2023/05/17 06:09:11;;;;;;;0.70;0.40;;;;;;;;;;13007814;19;20351;-65
2023/05/17 06:13:29;;;;;;;0.93;0.73;;;;;;;;;;13008035;19;20434;-65
2023/05/17 06:17:47;;;;;;;7.45;2.10;;;;;;;;;;13007644;19;20038;-65
2023/05/17 06:22:05;;;;;;;;;;;;;;;;;;13007168;19;20010;-65
2023/05/17 06:26:22;;;;;;;1.10;0.60;;;;;;;;;;13007162;19;19942;-65
2023/05/17 06:30:40;;;;;;;1.35;0.77;;;;;;;;;;13007334;19;20223;-64
2023/05/17 06:34:57;;;;;;;0.85;0.73;;;;;;;;;;13005232;19;20010;-64
2023/05/17 06:39:15;;;;;;;4.70;1.27;;;;;;;;;;13006057;19;20505;-64
2023/05/17 06:43:33;;;;;;;1.52;0.90;;;;;;;;;;13006396;19;20010;-64
2023/05/17 06:47:53;;;;;;;1.77;1.15;;;;;;;;;;13006377;19;20006;-64
2023/05/17 06:52:11;;;;;;;;;;;;;;;;;;13005758;19;20006;-65
2023/05/17 06:56:30;;;;;;;4.07;1.75;;;;;;;;;;13005496;19;19922;-64
2023/05/17 07:00:48;;;;;;;12.10;5.57;;;;;;;;;;13004907;19;20014;-65
2023/05/17 07:05:06;;;;;;;6.18;2.55;;;;;;;;;;13004101;19;20015;-65
2023/05/17 07:09:24;;;;;;;4.45;1.77;;;;;;;;;;13005196;19;20042;-64
2023/05/17 07:13:42;;;;;;;3.42;1.20;;;;;;;;;;13004700;19;20003;-64
2023/05/17 07:17:59;;;;;;;6.72;2.50;;;;;;;;;;13004658;19;20022;-64
2023/05/17 07:22:18;;;;;;;11.88;3.63;;;;;;;;;;13003675;19;20006;-65
2023/05/17 07:26:36;;;;;;;7.25;2.45;;;;;;;;;;13004213;19;20379;-64
2023/05/17 07:30:54;;;;;;;3.38;1.63;;;;;;;;;;13003260;19;20011;-64
2023/05/17 07:35:11;;;;;;;11.98;4.05;;;;;;;;;;13002602;19;20100;-64
2023/05/17 07:39:29;;;;;;;7.65;2.72;;;;;;;;;;13003158;19;20350;-64
2023/05/17 07:43:47;;;;;;;5.20;1.95;;;;;;;;;;13002814;19;20031;-64
2023/05/17 07:48:05;;;;;;;2.83;1.67;;;;;;;;;;12999549;19;20473;-64
2023/05/17 07:52:23;;;;;;;3.55;1.67;;;;;;;;;;13002116;19;20025;-64
2023/05/17 07:56:40;;;;;;;10.02;3.50;;;;;;;;;;13002465;19;20011;-64
2023/05/17 08:00:58;;;;;;;18.33;5.20;;;;;;;;;;13002262;19;20377;-64
2023/05/17 08:05:16;;;;;;;6.88;2.63;;;;;;;;;;13001344;19;20011;-64
2023/05/17 08:09:34;;;;;;;11.50;4.80;;;;;;;;;;13001992;19;20010;-64
2023/05/17 08:13:51;;;;;;;5.15;2.35;;;;;;;;;;13001214;19;20489;-64
2023/05/17 08:18:09;;;;;;;7.55;2.55;;;;;;;;;;13000527;19;20350;-64
2023/05/17 08:22:27;;;;;;;5.85;2.13;;;;;;;;;;13001752;19;20010;-64
2023/05/17 08:26:45;;;;;;;6.78;2.03;;;;;;;;;;13000651;19;20034;-64
2023/05/17 08:31:03;;;;;;;9.60;3.70;;;;;;;;;;13000474;19;20015;-65
2023/05/17 08:35:20;;;;;;;;;;;;;;;;;;13000719;19;20350;-64
2023/05/17 08:39:38;;;;;;;10.05;4.50;;;;;;;;;;12998667;19;19923;-64
2023/05/17 08:43:57;;;;;;;8.43;4.03;;;;;;;;;;12999349;19;20010;-64
2023/05/17 08:48:21;;;;;;;8.40;3.25;;;;;;;;;;12997361;19;20006;-64
2023/05/17 08:52:45;;;;;;;7.32;5.00;;;;;;;;;;13000244;19;20042;-64
2023/05/17 08:57:05;;;;;;;9.25;4.45;;;;;;;;;;13002346;19;20017;-65
2023/05/17 09:01:23;;;;;;;9.07;2.97;;;;;;;;;;13010748;19;20014;-64
2023/05/17 09:05:46;;;;;;;8.25;3.65;;;;;;;;;;13010606;19;20006;-64
2023/05/17 09:10:04;;;;;;;4.85;3.25;;;;;;;;;;13011128;19;20021;-64
2023/05/17 09:14:23;;;;;;;11.20;3.85;;;;;;;;;;13011231;19;20107;-65
2023/05/17 09:18:40;;;;;;;5.82;3.22;;;;;;;;;;13010897;19;20006;-64
2023/05/17 09:23:00;;;;;;;;;;;;;;;;;;13011297;19;20476;-64
2023/05/17 09:27:17;;;;;;;4.70;2.70;;;;;;;;;;13009251;19;19911;-64
2023/05/17 09:31:43;;;;;;;5.43;3.22;;;;;;;;;;13009843;19;20018;-64
2023/05/17 09:36:01;;;;;;;4.53;2.83;;;;;;;;;;13009808;19;20037;-64
2023/05/17 09:40:24;;;;;;;5.30;3.72;;;;;;;;;;13009289;19;20007;-65
2023/05/17 09:44:52;;;;;;;5.82;2.67;;;;;;;;;;13007757;19;20022;-64
2023/05/17 09:49:10;;;;;;;6.30;2.92;;;;;;;;;;13008729;19;20014;-65
2023/05/17 09:53:37;;;;;;;16.02;7.80;;;;;;;;;;13009288;19;20018;-65
2023/05/17 09:58:02;;;;;;;12.07;6.37;;;;;;;;;;13009129;19;20014;-65
2023/05/17 10:02:31;;;;;;;8.18;4.68;;;;;;;;;;13009457;19;20010;-65
2023/05/17 10:06:50;;;;;;;6.30;3.28;;;;;;;;;;13007476;19;20030;-65
2023/05/17 10:11:09;;;;;;;5.50;2.47;;;;;;;;;;13003501;19;20472;-65
2023/05/17 10:15:27;;;;;;;6.00;3.90;;;;;;;;;;13007700;19;20461;-65
2023/05/17 10:19:47;;;;;;;8.23;4.82;;;;;;;;;;13007897;19;20010;-65
2023/05/17 10:24:06;;;;;;;12.57;6.25;;;;;;;;;;13005463;19;20194;-65
2023/05/17 10:28:27;;;;;;;12.13;7.13;;;;;;;;;;13005565;19;20018;-65
2023/05/17 10:32:45;;;;;;;8.98;4.82;;;;;;;;;;13006943;19;20506;-65
2023/05/17 10:37:04;;;;;;;11.25;4.57;;;;;;;;;;13006475;19;20007;-65
2023/05/17 10:41:26;;;;;;;4.60;2.90;;;;;;;;;;13007103;19;20027;-65
2023/05/17 10:45:45;;;;;;;8.18;3.20;;;;;;;;;;13004949;19;19999;-65
2023/05/17 10:50:10;;;;;;;5.35;2.35;;;;;;;;;;13006280;19;20026;-65
2023/05/17 10:54:43;;;;;;;5.40;2.58;;;;;;;;;;13006270;19;20002;-65
2023/05/17 10:59:17;;;;;;;2.25;1.60;;;;;;;;;;13005520;19;20007;-66
2023/05/17 11:03:35;;;;;;;2.72;1.80;;;;;;;;;;13005200;19;20094;-65
2023/05/17 11:08:15;;;;;;;8.77;3.30;;;;;;;;;;13004902;19;20006;-65
2023/05/17 11:12:40;;;;;;;10.27;3.67;;;;;;;;;;13005542;19;20006;-65
2023/05/17 11:16:58;;;;;;;6.70;2.55;;;;;;;;;;13005598;19;20485;-65
2023/05/17 11:21:16;;;;;;;8.18;3.00;;;;;;;;;;13003968;19;20010;-65
2023/05/17 11:25:39;;;;;;;4.90;1.85;;;;;;;;;;13003681;19;20369;-65
2023/05/17 11:29:59;;;;;;;3.38;1.90;;;;;;;;;;13004001;19;20038;-64
2023/05/17 11:34:17;;;;;;;4.22;2.35;;;;;;;;;;13003690;19;20363;-65
2023/05/17 11:38:35;;;;;;;7.03;2.05;;;;;;;;;;13003650;19;20015;-65
2023/05/17 11:43:15;;;;;;;;;;;;;;;;;;13003232;19;20010;-65
2023/05/17 11:47:39;;;;;;;4.90;2.30;;;;;;;;;;13001421;19;19918;-65
2023/05/17 11:51:57;;;;;;;7.90;2.30;;;;;;;;;;13003161;19;20461;-65
2023/05/17 11:56:16;;;;;;;7.10;3.40;;;;;;;;;;13002227;19;20473;-65
2023/05/17 12:00:40;;;;;;;12.35;4.45;;;;;;;;;;13001251;19;20021;-65
2023/05/17 12:04:58;;;;;;;4.35;2.33;;;;;;;;;;13002568;19;20014;-65
2023/05/17 12:09:16;;;;;;;;;;;;;;;;;;13001841;19;20010;-65
2023/05/17 12:13:34;;;;;;;4.95;2.65;;;;;;;;;;13001852;19;19910;-65
2023/05/17 12:17:53;;;;;;;9.13;4.03;;;;;;;;;;13001269;19;20357;-65
2023/05/17 12:22:11;;;;;;;5.22;2.45;;;;;;;;;;12999631;19;20014;-65
2023/05/17 12:26:29;;;;;;;9.10;4.45;;;;;;;;;;13001257;19;20369;-65
2023/05/17 12:30:56;;;;;;;5.35;2.83;;;;;;;;;;12998337;19;20018;-65
2023/05/17 12:35:14;;;;;;;6.30;3.00;;;;;;;;;;13013201;19;20005;-65
2023/05/17 12:39:32;;;;;;;;;;;;;;;;;;13012842;19;20334;-65
2023/05/17 12:43:49;;;;;;;10.88;4.60;;;;;;;;;;13011926;19;19918;-65
2023/05/17 12:48:16;;;;;;;8.98;3.90;;;;;;;;;;13011823;19;20007;-65
2023/05/17 12:52:35;;;;;;;5.53;3.00;;;;;;;;;;13010983;19;20017;-65
2023/05/17 12:56:54;;;;;;;4.65;2.85;;;;;;;;;;13012337;19;19998;-65
2023/05/17 13:01:13;;;;;;;7.85;3.70;;;;;;;;;;13011221;19;20003;-65
2023/05/17 13:05:30;;;;;;;7.35;4.03;;;;;;;;;;13008900;19;20015;-65
2023/05/17 13:09:48;;;;;;;8.50;3.90;;;;;;;;;;13010868;19;20450;-65
2023/05/17 13:14:07;;;;;;;6.65;3.42;;;;;;;;;;13011327;19;20006;-65
2023/05/17 13:18:25;;;;;;;8.35;3.10;;;;;;;;;;13011477;19;20025;-65
2023/05/17 13:22:47;;;;;;;6.38;3.63;;;;;;;;;;13011677;19;20017;-65
2023/05/17 13:27:06;;;;;;;7.45;3.28;;;;;;;;;;13009575;19;19999;-65
2023/05/17 13:31:24;;;;;;;3.25;2.17;;;;;;;;;;13011477;19;20061;-65
2023/05/17 13:35:42;;;;;;;13.18;4.63;;;;;;;;;;13010456;19;20520;-65
2023/05/17 13:40:00;;;;;;;14.45;7.18;;;;;;;;;;13010747;19;20011;-65
2023/05/17 13:44:18;;;;;;;8.25;4.70;;;;;;;;;;13005988;19;20010;-65
2023/05/17 13:48:35;;;;;;;9.18;4.25;;;;;;;;;;13009139;19;20363;-65
2023/05/17 13:52:56;;;;;;;6.07;2.42;;;;;;;;;;13009269;19;20307;-65
2023/05/17 13:57:14;;;;;;;11.48;5.47;;;;;;;;;;13008364;19;20001;-65
2023/05/17 14:01:32;;;;;;;15.93;4.50;;;;;;;;;;13009324;19;20022;-65
2023/05/17 14:05:51;;;;;;;;;;;;;;;;;;13009078;19;20362;-65
2023/05/17 14:10:24;;;;;;;9.73;4.50;;;;;;;;;;13008245;19;19906;-65
2023/05/17 14:14:42;;;;;;;7.00;2.83;;;;;;;;;;13008713;19;20030;-65
2023/05/17 14:19:00;;;;;;;7.10;3.60;;;;;;;;;;13009203;19;20011;-65
2023/05/17 14:23:21;;;;;;;6.60;2.80;;;;;;;;;;13006861;19;20033;-65
2023/05/17 14:27:41;;;;;;;6.28;2.85;;;;;;;;;;13006829;19;20007;-65
2023/05/17 14:31:59;;;;;;;6.72;3.03;;;;;;;;;;13008029;19;19999;-65
2023/05/17 14:36:18;;;;;;;3.78;2.45;;;;;;;;;;13007061;19;20007;-65
2023/05/17 14:40:35;;;;;;;4.53;3.08;;;;;;;;;;13007017;19;20011;-65
2023/05/17 14:44:53;;;;;;;8.85;3.80;;;;;;;;;;13004431;19;20014;-65
2023/05/17 14:49:11;;;;;;;7.43;3.10;;;;;;;;;;13005351;19;20030;-65
2023/05/17 14:53:29;;;;;;;10.05;3.50;;;;;;;;;;13006266;19;20017;-65
2023/05/17 14:57:49;;;;;;;;;;;;;;;;;;13005812;19;20010;-64
2023/05/17 15:02:06;;;;;;;9.05;3.63;;;;;;;;;;13005122;19;19914;-66
2023/05/17 15:06:24;;;;;;;7.95;3.53;;;;;;;;;;13005118;19;20338;-65
2023/05/17 15:10:42;;;;;;;13.48;6.57;;;;;;;;;;13004914;19;20013;-65
2023/05/17 15:15:00;;;;;;;7.15;4.25;;;;;;;;;;13005321;19;20014;-65
2023/05/17 15:19:18;;;;;;;8.77;4.32;;;;;;;;;;13005114;19;20017;-65
2023/05/17 15:23:36;;;;;;;10.52;4.65;;;;;;;;;;13004521;19;20010;-65
2023/05/17 15:27:55;;;;;;;9.60;5.47;;;;;;;;;;13003989;19;20357;-65
2023/05/17 15:32:12;;;;;;;8.48;4.13;;;;;;;;;;13003563;19;19999;-65
2023/05/17 15:36:31;;;;;;;12.32;4.53;;;;;;;;;;13003446;19;20026;-65
2023/05/17 15:41:11;;;;;;;6.35;3.75;;;;;;;;;;13003292;19;20006;-65
2023/05/17 15:45:29;;;;;;;10.57;4.35;;;;;;;;;;13002037;19;20002;-65
2023/05/17 15:49:47;;;;;;;9.65;4.55;;;;;;;;;;13003079;19;20010;-64
2023/05/17 15:54:06;;;;;;;6.28;3.70;;;;;;;;;;13002222;19;20014;-65
2023/05/17 15:58:27;;;;;;;6.03;3.17;;;;;;;;;;13002117;19;20019;-64
2023/05/17 16:02:45;;;;;;;7.65;4.10;;;;;;;;;;13002241;19;20018;-64
2023/05/17 16:07:03;;;;;;;10.75;6.35;;;;;;;;;;12997099;19;20006;-65
2023/05/17 16:11:21;;;;;;;9.77;5.15;;;;;;;;;;13001715;19;20034;-65
2023/05/17 16:15:40;;;;;;;9.15;4.72;;;;;;;;;;13001931;19;20042;-64
2023/05/17 16:20:01;;;;;;;9.32;4.78;;;;;;;;;;13000563;19;20007;-67
2023/05/17 16:24:20;;;;;;;12.32;6.28;;;;;;;;;;13001021;19;20026;-65
2023/05/17 16:28:37;;;;;;;15.15;7.90;;;;;;;;;;12998229;19;20024;-65
2023/05/17 16:32:55;;;;;;;9.55;4.30;;;;;;;;;;13000891;19;20505;-65
2023/05/17 16:37:12;;;;;;;9.82;4.00;;;;;;;;;;12999322;19;20119;-65
2023/05/17 16:41:32;;;;;;;7.90;4.18;;;;;;;;;;13000299;19;20493;-65
2023/05/17 16:45:51;;;;;;;19.90;7.72;;;;;;;;;;12999480;19;20003;-64
2023/05/17 16:50:10;;;;;;;13.02;5.88;;;;;;;;;;13000405;19;20353;-65
2023/05/17 16:54:28;;;;;;;11.45;5.38;;;;;;;;;;12998085;19;20020;-64
2023/05/17 16:58:46;;;;;;;11.80;4.75;;;;;;;;;;12999757;19;20006;-64
2023/05/17 17:03:04;;;;;;;11.48;5.85;;;;;;;;;;12997484;19;19999;-65
2023/05/17 17:07:25;;;;;;;12.75;6.82;;;;;;;;;;12996815;19;20014;-64
2023/05/17 17:11:43;;;;;;;9.63;5.32;;;;;;;;;;12999474;19;20011;-64
2023/05/17 17:16:01;;;;;;;;;;;;;;;;;;12998167;19;20014;-67
2023/05/17 17:20:19;;;;;;;19.00;9.07;;;;;;;;;;13008057;19;19992;-63
2023/05/17 17:24:38;;;;;;;16.15;6.85;;;;;;;;;;13010667;19;20354;-63
2023/05/17 17:28:57;;;;;;;14.80;7.75;;;;;;;;;;13010567;19;20014;-63
2023/05/17 17:33:15;;;;;;;9.15;4.80;;;;;;;;;;13009531;19;20034;-63
2023/05/17 17:37:33;;;;;;;10.23;4.68;;;;;;;;;;13009772;19;20022;-63
2023/05/17 17:41:50;;;;;;;8.05;5.65;;;;;;;;;;13009508;19;20346;-63
2023/05/17 17:46:08;;;;;;;10.27;4.70;;;;;;;;;;13007043;19;20014;-63
2023/05/17 17:50:26;;;;;;;11.80;4.20;;;;;;;;;;13009356;19;20006;-63
2023/05/17 17:54:44;;;;;;;8.35;4.63;;;;;;;;;;13009156;19;20021;-63
2023/05/17 17:59:02;;;;;;;;;;;;;;;;;;13008867;19;20002;-64
2023/05/17 18:03:24;;;;;;;11.43;5.50;;;;;;;;;;13008669;19;20359;-64
2023/05/17 18:07:41;;;;;;;12.00;6.70;;;;;;;;;;13008196;19;20034;-63
2023/05/17 18:11:59;;;;;;;16.98;9.77;;;;;;;;;;13007848;19;20030;-63
2023/05/17 18:16:17;;;;;;;9.85;5.25;;;;;;;;;;13007172;19;20508;-63
2023/05/17 18:20:34;;;;;;;8.60;4.57;;;;;;;;;;13007291;19;20042;-63
2023/05/17 18:24:52;;;;;;;12.50;4.85;;;;;;;;;;13007127;19;20327;-63
2023/05/17 18:29:10;;;;;;;12.90;5.65;;;;;;;;;;13004744;19;20014;-63
2023/05/17 18:33:28;;;;;;;12.20;4.90;;;;;;;;;;13007093;19;20017;-63
2023/05/17 18:37:46;;;;;;;12.57;6.95;;;;;;;;;;13006358;19;20469;-63
2023/05/17 18:42:04;;;;;;;9.57;5.25;;;;;;;;;;13005484;19;20011;-63
2023/05/17 18:46:22;;;;;;;14.75;6.97;;;;;;;;;;13004495;19;20018;-64
2023/05/17 18:50:40;;;;;;;19.90;8.98;;;;;;;;;;13005696;19;20014;-64
2023/05/17 18:54:57;;;;;;;11.20;6.07;;;;;;;;;;13004737;19;20030;-64
2023/05/17 18:59:15;;;;;;;18.38;7.68;;;;;;;;;;13004562;19;20018;-64
2023/05/17 19:03:33;;;;;;;20.13;9.45;;;;;;;;;;13005364;19;20010;-64
2023/05/17 19:07:51;;;;;;;27.48;13.20;;;;;;;;;;13003849;19;20007;-64
2023/05/17 19:12:09;;;;;;;18.40;7.25;;;;;;;;;;13004182;19;20002;-64
2023/05/17 19:16:28;;;;;;;14.18;5.60;;;;;;;;;;13002529;19;20017;-64
2023/05/17 19:20:45;;;;;;;9.35;4.90;;;;;;;;;;13004067;19;20371;-63
2023/05/17 19:25:04;;;;;;;11.68;5.78;;;;;;;;;;13002428;19;20010;-65
2023/05/17 19:29:22;;;;;;;17.45;7.47;;;;;;;;;;13002086;19;20458;-64
2023/05/17 19:33:39;;;;;;;30.38;9.75;;;;;;;;;;13003390;19;20014;-64
2023/05/17 19:37:58;;;;;;;14.52;7.43;;;;;;;;;;13002357;19;20354;-64
2023/05/17 19:42:15;;;;;;;;;;;;;;;;;;13003010;19;20030;-64
2023/05/17 19:46:33;;;;;;;9.40;5.10;;;;;;;;;;13001091;19;19910;-64
2023/05/17 19:50:52;;;;;;;36.25;11.38;;;;;;;;;;13002207;19;20073;-63
2023/05/17 19:55:14;;;;;;;12.15;6.25;;;;;;;;;;13001340;19;20021;-63
2023/05/17 19:59:32;;;;;;;14.60;6.85;;;;;;;;;;13001601;19;20014;-64
2023/05/17 20:03:51;;;;;;;39.72;13.95;;;;;;;;;;13001558;19;20030;-63
2023/05/17 20:08:08;;;;;;;;;;;;;;;;;;13001486;19;20011;-64
2023/05/17 20:12:26;;;;;;;14.27;6.13;;;;;;;;;;13000761;19;19948;-64
2023/05/17 20:16:44;;;;;;;31.83;12.02;;;;;;;;;;13002091;19;20007;-64
2023/05/17 20:21:02;;;;;;;;;;;;;;;;;;13002238;19;20034;-65
2023/05/17 20:25:20;;;;;;;12.40;5.43;;;;;;;;;;13000798;19;19925;-64
2023/05/17 20:29:39;;;;;;;16.77;6.78;;;;;;;;;;12999984;19;20095;-64
2023/05/17 20:33:57;;;;;;;21.40;8.18;;;;;;;;;;13000788;19;19994;-64
2023/05/17 20:38:15;;;;;;;;;;;;;;;;;;13001120;19;20033;-64
2023/05/17 20:42:36;;;;;;;14.88;6.45;;;;;;;;;;13000345;19;20259;-64
2023/05/17 20:46:55;;;;;;;30.05;9.73;;;;;;;;;;12998969;19;20013;-64
2023/05/17 20:51:14;;;;;;;16.58;6.15;;;;;;;;;;12996632;19;20026;-64
2023/05/17 20:55:31;;;;;;;21.45;7.65;;;;;;;;;;13010324;19;20481;-64
2023/05/17 20:59:49;;;;;;;14.68;6.88;;;;;;;;;;13011669;19;20015;-64
2023/05/17 21:04:07;;;;;;;;;;;;;;;;;;13011533;19;20369;-64
2023/05/17 21:08:25;;;;;;;9.32;4.53;;;;;;;;;;13010649;19;19926;-64
2023/05/17 21:12:43;;;;;;;8.15;4.53;;;;;;;;;;13011705;19;20038;-64
2023/05/17 21:17:02;;;;;;;12.93;5.90;;;;;;;;;;13010522;19;20046;-65
2023/05/17 21:21:20;;;;;;;15.82;7.35;;;;;;;;;;13011863;19;20022;-64
2023/05/17 21:25:38;;;;;;;20.70;8.60;;;;;;;;;;13010589;19;20006;-64
2023/05/17 21:29:56;;;;;;;11.02;5.00;;;;;;;;;;13009379;19;20066;-64
2023/05/17 21:34:13;;;;;;;7.43;3.80;;;;;;;;;;13008846;19;20035;-64
2023/05/17 21:38:31;;;;;;;12.45;5.20;;;;;;;;;;13009596;19;20006;-64
2023/05/17 21:42:48;;;;;;;16.98;5.97;;;;;;;;;;13009333;19;20002;-64
2023/05/17 21:47:06;;;;;;;13.60;4.93;;;;;;;;;;13007539;19;20007;-65
2023/05/17 21:51:24;;;;;;;13.57;5.78;;;;;;;;;;13008171;19;20015;-64
2023/05/17 21:55:42;;;;;;;10.93;5.40;;;;;;;;;;13008666;19;20358;-64
2023/05/17 22:00:19;;;;;;;13.35;5.72;;;;;;;;;;13008979;19;20007;-64
2023/05/17 22:04:37;;;;;;;13.30;5.78;;;;;;;;;;13006367;19;19999;-64
2023/05/17 22:08:54;;;;;;;8.93;4.88;;;;;;;;;;13005758;19;20013;-64
2023/05/17 22:13:14;;;;;;;9.95;5.20;;;;;;;;;;13007007;19;20041;-64
2023/05/17 22:17:33;;;;;;;8.95;4.68;;;;;;;;;;13007343;19;20349;-64
2023/05/17 22:22:07;;;;;;;15.20;5.40;;;;;;;;;;13006522;19;19999;-65
2023/05/17 22:26:26;;;;;;;8.23;4.53;;;;;;;;;;13006611;19;20010;-64
2023/05/17 22:30:45;;;;;;;9.98;5.30;;;;;;;;;;13006492;19;20346;-64
2023/05/17 22:35:03;;;;;;;9.65;4.60;;;;;;;;;;13006845;19;20562;-64
2023/05/17 22:39:21;;;;;;;7.60;3.88;;;;;;;;;;13006692;19;20038;-64
2023/05/17 22:43:39;;;;;;;9.88;4.97;;;;;;;;;;13006431;19;20029;-64
2023/05/17 22:47:57;;;;;;;10.48;4.15;;;;;;;;;;13006274;19;20470;-64
2023/05/17 22:52:16;;;;;;;;;;;;;;;;;;13005980;19;20362;-64
2023/05/17 22:56:33;;;;;;;12.07;4.45;;;;;;;;;;13004963;19;19911;-64
2023/05/17 23:00:51;;;;;;;8.95;4.47;;;;;;;;;;13005169;19;20041;-63
2023/05/17 23:05:10;;;;;;;;;;;;;;;;;;13004629;19;20014;-63
2023/05/17 23:09:28;;;;;;;7.55;3.78;;;;;;;;;;13004963;19;19918;-63
2023/05/17 23:13:46;;;;;;;8.18;3.78;;;;;;;;;;13004830;19;19998;-63
2023/05/17 23:18:04;;;;;;;11.77;3.40;;;;;;;;;;13003660;19;20316;-63
2023/05/17 23:22:22;;;;;;;5.45;3.33;;;;;;;;;;13004053;19;20058;-63
2023/05/17 23:26:40;;;;;;;9.48;4.53;;;;;;;;;;13004253;19;20034;-63
2023/05/17 23:31:00;;;;;;;6.40;3.28;;;;;;;;;;13002428;19;20035;-63
2023/05/17 23:35:18;;;;;;;9.30;4.00;;;;;;;;;;13003491;19;20022;-64
2023/05/17 23:39:36;;;;;;;6.72;3.22;;;;;;;;;;13003123;19;20017;-64
2023/05/17 23:43:55;;;;;;;7.13;3.47;;;;;;;;;;13001974;19;20018;-64
2023/05/17 23:48:14;;;;;;;9.02;3.70;;;;;;;;;;13001063;19;19998;-63
2023/05/17 23:52:32;;;;;;;7.28;2.85;;;;;;;;;;13002382;19;20074;-63
2023/05/17 23:56:50;;;;;;;8.23;2.88;;;;;;;;;;13001520;19;20354;-63
